sensor_id;sensor_type;location;lat;lon;timestamp;temperature;humidity
8988;DHT22;4529;51.360;12.474;2023-04-15T00:02:47;8.70;99.90
8988;DHT22;4529;51.360;12.474;2023-04-15T00:07:50;8.70;99.90
8988;DHT22;4529;51.360;12.474;2023-04-15T00:12:54;8.70;99.90
8988;DHT22;4529;51.360;12.474;2023-04-15T00:17:58;8.60;99.90
8988;DHT22;4529;51.360;12.474;2023-04-15T00:23:02;8.60;99.90
8988;DHT22;4529;51.360;12.474;2023-04-15T00:28:06;8.60;99.90
8988;DHT22;4529;51.360;12.474;2023-04-15T00:33:10;8.60;99.90
8988;DHT22;4529;51.360;12.474;2023-04-15T00:38:13;8.60;99.90
8988;DHT22;4529;51.360;12.474;2023-04-15T00:43:17;8.60;99.90
8988;DHT22;4529;51.360;12.474;2023-04-15T00:48:20;8.60;99.90
8988;DHT22;4529;51.360;12.474;2023-04-15T00:53:24;8.60;99.90
8988;DHT22;4529;51.360;12.474;2023-04-15T00:58:28;8.60;99.90
8988;DHT22;4529;51.360;12.474;2023-04-15T01:03:32;8.50;99.90
8988;DHT22;4529;51.360;12.474;2023-04-15T01:08:35;8.50;99.90
8988;DHT22;4529;51.360;12.474;2023-04-15T01:13:39;8.50;99.90
8988;DHT22;4529;51.360;12.474;2023-04-15T01:18:42;8.50;99.90
8988;DHT22;4529;51.360;12.474;2023-04-15T01:23:46;8.50;99.90
8988;DHT22;4529;51.360;12.474;2023-04-15T01:28:49;8.50;99.90
8988;DHT22;4529;51.360;12.474;2023-04-15T01:33:53;8.50;99.90
8988;DHT22;4529;51.360;12.474;2023-04-15T01:38:57;8.50;99.90
8988;DHT22;4529;51.360;12.474;2023-04-15T01:44:01;8.50;99.90
8988;DHT22;4529;51.360;12.474;2023-04-15T01:49:04;8.40;99.90
8988;DHT22;4529;51.360;12.474;2023-04-15T01:54:08;8.40;99.90
8988;DHT22;4529;51.360;12.474;2023-04-15T01:59:11;8.40;99.90
8988;DHT22;4529;51.360;12.474;2023-04-15T02:04:15;8.40;99.90
8988;DHT22;4529;51.360;12.474;2023-04-15T02:09:19;8.40;99.90
8988;DHT22;4529;51.360;12.474;2023-04-15T02:14:23;8.40;99.90
8988;DHT22;4529;51.360;12.474;2023-04-15T02:19:26;8.40;99.90
8988;DHT22;4529;51.360;12.474;2023-04-15T02:24:30;8.40;99.90
8988;DHT22;4529;51.360;12.474;2023-04-15T02:29:33;8.40;99.90
8988;DHT22;4529;51.360;12.474;2023-04-15T02:34:39;8.40;99.90
8988;DHT22;4529;51.360;12.474;2023-04-15T02:39:40;8.40;99.90
8988;DHT22;4529;51.360;12.474;2023-04-15T02:44:44;8.40;99.90
8988;DHT22;4529;51.360;12.474;2023-04-15T02:49:48;8.40;99.90
8988;DHT22;4529;51.360;12.474;2023-04-15T02:54:53;8.40;99.90
8988;DHT22;4529;51.360;12.474;2023-04-15T02:59:56;8.40;99.90
8988;DHT22;4529;51.360;12.474;2023-04-15T03:05:00;8.40;99.90
8988;DHT22;4529;51.360;12.474;2023-04-15T03:10:03;8.40;99.90
8988;DHT22;4529;51.360;12.474;2023-04-15T03:15:07;8.40;99.90
8988;DHT22;4529;51.360;12.474;2023-04-15T03:20:10;8.30;99.90
8988;DHT22;4529;51.360;12.474;2023-04-15T03:25:14;8.40;99.90
8988;DHT22;4529;51.360;12.474;2023-04-15T03:30:17;8.30;99.90
8988;DHT22;4529;51.360;12.474;2023-04-15T03:35:20;8.30;99.90
8988;DHT22;4529;51.360;12.474;2023-04-15T03:40:25;8.40;99.90
8988;DHT22;4529;51.360;12.474;2023-04-15T03:45:29;8.40;99.90
8988;DHT22;4529;51.360;12.474;2023-04-15T03:50:33;8.40;99.90
8988;DHT22;4529;51.360;12.474;2023-04-15T03:55:37;8.40;99.90
8988;DHT22;4529;51.360;12.474;2023-04-15T04:00:41;8.40;99.90
8988;DHT22;4529;51.360;12.474;2023-04-15T04:05:45;8.40;99.90
8988;DHT22;4529;51.360;12.474;2023-04-15T04:10:49;8.40;99.90
8988;DHT22;4529;51.360;12.474;2023-04-15T04:15:52;8.40;99.90
8988;DHT22;4529;51.360;12.474;2023-04-15T04:20:56;8.40;99.90
8988;DHT22;4529;51.360;12.474;2023-04-15T04:25:59;8.40;99.90
8988;DHT22;4529;51.360;12.474;2023-04-15T04:31:02;8.40;99.90
8988;DHT22;4529;51.360;12.474;2023-04-15T04:36:07;8.40;99.90
8988;DHT22;4529;51.360;12.474;2023-04-15T04:41:10;8.40;99.90
8988;DHT22;4529;51.360;12.474;2023-04-15T04:46:14;8.50;99.90
8988;DHT22;4529;51.360;12.474;2023-04-15T04:51:18;8.40;99.90
8988;DHT22;4529;51.360;12.474;2023-04-15T04:56:22;8.40;99.90
8988;DHT22;4529;51.360;12.474;2023-04-15T05:01:25;8.40;99.90
8988;DHT22;4529;51.360;12.474;2023-04-15T05:06:29;8.40;99.90
8988;DHT22;4529;51.360;12.474;2023-04-15T05:11:32;8.50;99.90
8988;DHT22;4529;51.360;12.474;2023-04-15T05:16:36;8.50;99.90
8988;DHT22;4529;51.360;12.474;2023-04-15T05:21:40;8.50;99.90
8988;DHT22;4529;51.360;12.474;2023-04-15T05:26:44;8.50;99.90
8988;DHT22;4529;51.360;12.474;2023-04-15T05:31:48;8.50;99.90
8988;DHT22;4529;51.360;12.474;2023-04-15T05:36:51;8.50;99.90
8988;DHT22;4529;51.360;12.474;2023-04-15T05:41:55;8.50;99.90
8988;DHT22;4529;51.360;12.474;2023-04-15T05:46:58;8.50;99.90
8988;DHT22;4529;51.360;12.474;2023-04-15T05:52:02;8.50;99.90
8988;DHT22;4529;51.360;12.474;2023-04-15T05:57:05;8.50;99.90
8988;DHT22;4529;51.360;12.474;2023-04-15T06:02:09;8.60;99.90
8988;DHT22;4529;51.360;12.474;2023-04-15T06:07:13;8.60;99.90
8988;DHT22;4529;51.360;12.474;2023-04-15T06:12:17;8.60;99.90
8988;DHT22;4529;51.360;12.474;2023-04-15T06:17:20;8.60;99.90
8988;DHT22;4529;51.360;12.474;2023-04-15T06:22:24;8.60;99.90
8988;DHT22;4529;51.360;12.474;2023-04-15T06:27:27;8.60;99.90
8988;DHT22;4529;51.360;12.474;2023-04-15T06:32:31;8.70;99.90
8988;DHT22;4529;51.360;12.474;2023-04-15T06:37:36;8.70;99.90
8988;DHT22;4529;51.360;12.474;2023-04-15T06:42:40;8.70;99.90
8988;DHT22;4529;51.360;12.474;2023-04-15T06:47:44;8.80;99.90
8988;DHT22;4529;51.360;12.474;2023-04-15T06:52:47;8.70;99.90
8988;DHT22;4529;51.360;12.474;2023-04-15T06:57:51;8.80;99.90
8988;DHT22;4529;51.360;12.474;2023-04-15T07:02:56;8.80;99.90
8988;DHT22;4529;51.360;12.474;2023-04-15T07:07:59;8.80;99.90
8988;DHT22;4529;51.360;12.474;2023-04-15T07:13:03;8.90;99.90
8988;DHT22;4529;51.360;12.474;2023-04-15T07:18:06;8.90;99.90
8988;DHT22;4529;51.360;12.474;2023-04-15T07:23:10;9.00;99.90
8988;DHT22;4529;51.360;12.474;2023-04-15T07:28:14;8.90;99.90
8988;DHT22;4529;51.360;12.474;2023-04-15T07:33:18;9.00;99.90
8988;DHT22;4529;51.360;12.474;2023-04-15T07:38:22;9.10;99.90
8988;DHT22;4529;51.360;12.474;2023-04-15T07:43:26;9.00;99.90
8988;DHT22;4529;51.360;12.474;2023-04-15T07:48:29;9.10;99.90
8988;DHT22;4529;51.360;12.474;2023-04-15T07:53:33;9.30;99.90
8988;DHT22;4529;51.360;12.474;2023-04-15T07:58:36;9.50;99.90
8988;DHT22;4529;51.360;12.474;2023-04-15T08:03:40;9.50;99.90
8988;DHT22;4529;51.360;12.474;2023-04-15T08:08:44;9.40;99.90
8988;DHT22;4529;51.360;12.474;2023-04-15T08:13:48;9.40;99.90
8988;DHT22;4529;51.360;12.474;2023-04-15T08:18:52;9.40;99.90
8988;DHT22;4529;51.360;12.474;2023-04-15T08:23:55;9.40;99.90
8988;DHT22;4529;51.360;12.474;2023-04-15T08:28:58;9.40;99.90
8988;DHT22;4529;51.360;12.474;2023-04-15T08:34:02;9.40;99.90
8988;DHT22;4529;51.360;12.474;2023-04-15T08:39:07;9.50;99.90
8988;DHT22;4529;51.360;12.474;2023-04-15T08:44:11;9.50;99.90
8988;DHT22;4529;51.360;12.474;2023-04-15T08:49:15;9.50;99.90
8988;DHT22;4529;51.360;12.474;2023-04-15T08:54:20;9.60;99.90
8988;DHT22;4529;51.360;12.474;2023-04-15T08:59:23;9.60;99.90
8988;DHT22;4529;51.360;12.474;2023-04-15T09:04:27;9.60;99.90
8988;DHT22;4529;51.360;12.474;2023-04-15T09:09:31;9.60;99.90
8988;DHT22;4529;51.360;12.474;2023-04-15T09:14:35;9.50;99.90
8988;DHT22;4529;51.360;12.474;2023-04-15T09:19:38;9.50;99.90
8988;DHT22;4529;51.360;12.474;2023-04-15T09:24:42;9.60;99.90
8988;DHT22;4529;51.360;12.474;2023-04-15T09:29:48;9.60;99.90
8988;DHT22;4529;51.360;12.474;2023-04-15T09:34:50;9.80;99.90
8988;DHT22;4529;51.360;12.474;2023-04-15T09:39:54;9.90;99.90
8988;DHT22;4529;51.360;12.474;2023-04-15T09:45:08;10.00;99.90
8988;DHT22;4529;51.360;12.474;2023-04-15T09:50:11;9.90;99.90
8988;DHT22;4529;51.360;12.474;2023-04-15T09:55:16;10.10;99.90
8988;DHT22;4529;51.360;12.474;2023-04-15T10:00:19;10.10;99.90
8988;DHT22;4529;51.360;12.474;2023-04-15T10:05:22;10.10;99.90
8988;DHT22;4529;51.360;12.474;2023-04-15T10:10:27;10.20;99.90
8988;DHT22;4529;51.360;12.474;2023-04-15T10:15:31;10.40;99.90
8988;DHT22;4529;51.360;12.474;2023-04-15T10:20:35;10.40;99.90
8988;DHT22;4529;51.360;12.474;2023-04-15T10:25:39;10.50;99.90
8988;DHT22;4529;51.360;12.474;2023-04-15T10:30:43;10.50;99.90
8988;DHT22;4529;51.360;12.474;2023-04-15T10:35:47;10.50;99.90
8988;DHT22;4529;51.360;12.474;2023-04-15T10:40:50;10.50;99.90
8988;DHT22;4529;51.360;12.474;2023-04-15T10:45:53;10.60;99.90
8988;DHT22;4529;51.360;12.474;2023-04-15T10:50:59;10.70;99.90
8988;DHT22;4529;51.360;12.474;2023-04-15T10:56:01;10.70;99.90
8988;DHT22;4529;51.360;12.474;2023-04-15T11:01:05;10.80;99.90
8988;DHT22;4529;51.360;12.474;2023-04-15T11:06:09;10.90;99.90
8988;DHT22;4529;51.360;12.474;2023-04-15T11:11:13;11.10;99.90
8988;DHT22;4529;51.360;12.474;2023-04-15T11:16:17;11.20;99.90
8988;DHT22;4529;51.360;12.474;2023-04-15T11:21:23;11.20;99.90
8988;DHT22;4529;51.360;12.474;2023-04-15T11:26:25;11.30;99.90
8988;DHT22;4529;51.360;12.474;2023-04-15T11:31:28;11.40;99.90
8988;DHT22;4529;51.360;12.474;2023-04-15T11:36:31;11.40;99.90
8988;DHT22;4529;51.360;12.474;2023-04-15T11:41:35;11.50;99.90
8988;DHT22;4529;51.360;12.474;2023-04-15T11:46:38;11.50;99.90
8988;DHT22;4529;51.360;12.474;2023-04-15T11:51:41;11.50;99.90
8988;DHT22;4529;51.360;12.474;2023-04-15T11:56:49;11.50;99.90
8988;DHT22;4529;51.360;12.474;2023-04-15T12:01:48;11.50;99.90
8988;DHT22;4529;51.360;12.474;2023-04-15T12:06:52;11.50;99.90
8988;DHT22;4529;51.360;12.474;2023-04-15T12:11:56;11.50;99.90
8988;DHT22;4529;51.360;12.474;2023-04-15T12:17:00;11.50;99.90
8988;DHT22;4529;51.360;12.474;2023-04-15T12:22:08;11.50;99.90
8988;DHT22;4529;51.360;12.474;2023-04-15T12:27:12;11.60;99.90
8988;DHT22;4529;51.360;12.474;2023-04-15T12:32:15;11.60;99.90
8988;DHT22;4529;51.360;12.474;2023-04-15T12:37:21;11.60;99.90
8988;DHT22;4529;51.360;12.474;2023-04-15T12:42:26;11.70;99.90
8988;DHT22;4529;51.360;12.474;2023-04-15T12:47:30;11.80;99.90
8988;DHT22;4529;51.360;12.474;2023-04-15T12:52:34;11.90;99.90
8988;DHT22;4529;51.360;12.474;2023-04-15T12:57:39;11.90;99.90
8988;DHT22;4529;51.360;12.474;2023-04-15T13:02:43;11.90;99.90
8988;DHT22;4529;51.360;12.474;2023-04-15T13:07:47;12.00;99.90
8988;DHT22;4529;51.360;12.474;2023-04-15T13:12:51;12.00;99.90
8988;DHT22;4529;51.360;12.474;2023-04-15T13:17:55;12.00;99.90
8988;DHT22;4529;51.360;12.474;2023-04-15T13:22:59;12.00;99.90
8988;DHT22;4529;51.360;12.474;2023-04-15T13:28:04;12.00;99.90
8988;DHT22;4529;51.360;12.474;2023-04-15T13:33:07;12.00;99.90
8988;DHT22;4529;51.360;12.474;2023-04-15T13:38:11;12.20;99.90
8988;DHT22;4529;51.360;12.474;2023-04-15T13:43:16;12.30;99.90
8988;DHT22;4529;51.360;12.474;2023-04-15T13:48:19;12.30;99.90
8988;DHT22;4529;51.360;12.474;2023-04-15T13:53:22;12.40;99.90
8988;DHT22;4529;51.360;12.474;2023-04-15T13:58:26;12.50;99.90
8988;DHT22;4529;51.360;12.474;2023-04-15T14:03:29;12.50;99.90
8988;DHT22;4529;51.360;12.474;2023-04-15T14:08:33;12.50;99.90
8988;DHT22;4529;51.360;12.474;2023-04-15T14:13:37;12.40;99.90
8988;DHT22;4529;51.360;12.474;2023-04-15T14:18:42;12.40;99.90
8988;DHT22;4529;51.360;12.474;2023-04-15T14:23:45;12.40;99.90
8988;DHT22;4529;51.360;12.474;2023-04-15T14:28:50;12.40;99.90
8988;DHT22;4529;51.360;12.474;2023-04-15T14:33:54;12.40;99.90
8988;DHT22;4529;51.360;12.474;2023-04-15T14:38:58;12.30;99.90
8988;DHT22;4529;51.360;12.474;2023-04-15T14:44:03;12.30;99.90
8988;DHT22;4529;51.360;12.474;2023-04-15T14:49:06;12.40;99.90
8988;DHT22;4529;51.360;12.474;2023-04-15T14:54:11;12.40;99.90
8988;DHT22;4529;51.360;12.474;2023-04-15T14:59:14;12.40;99.90
8988;DHT22;4529;51.360;12.474;2023-04-15T15:04:18;12.40;99.90
8988;DHT22;4529;51.360;12.474;2023-04-15T15:09:21;12.40;99.90
8988;DHT22;4529;51.360;12.474;2023-04-15T15:14:25;12.40;99.90
8988;DHT22;4529;51.360;12.474;2023-04-15T15:19:28;12.50;99.90
8988;DHT22;4529;51.360;12.474;2023-04-15T15:24:32;12.50;99.90
8988;DHT22;4529;51.360;12.474;2023-04-15T15:34:44;12.50;99.90
8988;DHT22;4529;51.360;12.474;2023-04-15T15:39:49;12.50;99.90
8988;DHT22;4529;51.360;12.474;2023-04-15T15:44:52;12.60;99.90
8988;DHT22;4529;51.360;12.474;2023-04-15T15:49:56;12.60;99.90
8988;DHT22;4529;51.360;12.474;2023-04-15T15:55:00;12.60;99.90
8988;DHT22;4529;51.360;12.474;2023-04-15T16:00:05;12.60;99.90
8988;DHT22;4529;51.360;12.474;2023-04-15T16:05:09;12.60;99.90
8988;DHT22;4529;51.360;12.474;2023-04-15T16:10:12;12.60;99.90
8988;DHT22;4529;51.360;12.474;2023-04-15T16:15:16;12.50;99.90
8988;DHT22;4529;51.360;12.474;2023-04-15T16:20:19;12.50;99.90
8988;DHT22;4529;51.360;12.474;2023-04-15T16:25:23;12.50;99.90
8988;DHT22;4529;51.360;12.474;2023-04-15T16:30:26;12.50;99.90
8988;DHT22;4529;51.360;12.474;2023-04-15T16:35:29;12.50;99.90
8988;DHT22;4529;51.360;12.474;2023-04-15T16:40:33;12.50;99.90
8988;DHT22;4529;51.360;12.474;2023-04-15T16:45:36;12.50;99.90
8988;DHT22;4529;51.360;12.474;2023-04-15T16:50:40;12.50;99.90
8988;DHT22;4529;51.360;12.474;2023-04-15T16:55:43;12.60;99.90
8988;DHT22;4529;51.360;12.474;2023-04-15T17:00:48;12.70;99.90
8988;DHT22;4529;51.360;12.474;2023-04-15T17:05:53;12.60;99.90
8988;DHT22;4529;51.360;12.474;2023-04-15T17:10:56;12.60;99.90
8988;DHT22;4529;51.360;12.474;2023-04-15T17:16:00;12.70;99.90
8988;DHT22;4529;51.360;12.474;2023-04-15T17:21:05;12.80;99.90
8988;DHT22;4529;51.360;12.474;2023-04-15T17:26:08;12.80;99.90
8988;DHT22;4529;51.360;12.474;2023-04-15T17:31:12;12.80;99.90
8988;DHT22;4529;51.360;12.474;2023-04-15T17:36:16;12.90;99.90
8988;DHT22;4529;51.360;12.474;2023-04-15T17:41:20;12.90;99.90
8988;DHT22;4529;51.360;12.474;2023-04-15T17:46:24;12.90;99.90
8988;DHT22;4529;51.360;12.474;2023-04-15T17:51:28;13.00;99.90
8988;DHT22;4529;51.360;12.474;2023-04-15T17:56:33;12.90;99.90
8988;DHT22;4529;51.360;12.474;2023-04-15T18:01:36;12.90;99.90
8988;DHT22;4529;51.360;12.474;2023-04-15T18:06:39;12.90;99.90
8988;DHT22;4529;51.360;12.474;2023-04-15T18:11:43;12.80;99.90
8988;DHT22;4529;51.360;12.474;2023-04-15T18:16:46;12.90;99.90
8988;DHT22;4529;51.360;12.474;2023-04-15T18:21:50;12.80;99.90
8988;DHT22;4529;51.360;12.474;2023-04-15T18:26:54;12.80;99.90
8988;DHT22;4529;51.360;12.474;2023-04-15T18:31:59;12.70;99.90
8988;DHT22;4529;51.360;12.474;2023-04-15T18:37:03;12.70;99.90
8988;DHT22;4529;51.360;12.474;2023-04-15T18:42:07;12.70;99.90
8988;DHT22;4529;51.360;12.474;2023-04-15T18:47:11;12.70;99.90
8988;DHT22;4529;51.360;12.474;2023-04-15T18:52:15;12.70;99.90
8988;DHT22;4529;51.360;12.474;2023-04-15T18:57:18;12.70;99.90
8988;DHT22;4529;51.360;12.474;2023-04-15T19:02:22;12.50;99.90
8988;DHT22;4529;51.360;12.474;2023-04-15T19:07:25;12.40;99.90
8988;DHT22;4529;51.360;12.474;2023-04-15T19:12:29;12.40;99.90
8988;DHT22;4529;51.360;12.474;2023-04-15T19:17:32;12.50;99.90
8988;DHT22;4529;51.360;12.474;2023-04-15T19:22:36;12.50;99.90
8988;DHT22;4529;51.360;12.474;2023-04-15T19:27:39;12.50;99.90
8988;DHT22;4529;51.360;12.474;2023-04-15T19:32:43;12.40;99.90
8988;DHT22;4529;51.360;12.474;2023-04-15T19:37:46;12.30;99.90
8988;DHT22;4529;51.360;12.474;2023-04-15T19:42:50;12.10;99.90
8988;DHT22;4529;51.360;12.474;2023-04-15T19:47:53;12.10;99.90
8988;DHT22;4529;51.360;12.474;2023-04-15T19:52:57;12.00;99.90
8988;DHT22;4529;51.360;12.474;2023-04-15T19:58:00;12.00;99.90
8988;DHT22;4529;51.360;12.474;2023-04-15T20:03:04;11.90;99.90
8988;DHT22;4529;51.360;12.474;2023-04-15T20:08:07;11.90;99.90
8988;DHT22;4529;51.360;12.474;2023-04-15T20:13:11;11.90;99.90
8988;DHT22;4529;51.360;12.474;2023-04-15T20:18:14;11.80;99.90
8988;DHT22;4529;51.360;12.474;2023-04-15T20:23:18;11.80;99.90
8988;DHT22;4529;51.360;12.474;2023-04-15T20:28:21;11.80;99.90
8988;DHT22;4529;51.360;12.474;2023-04-15T20:33:25;11.80;99.90
8988;DHT22;4529;51.360;12.474;2023-04-15T20:38:33;11.80;99.90
8988;DHT22;4529;51.360;12.474;2023-04-15T20:43:37;11.70;99.90
8988;DHT22;4529;51.360;12.474;2023-04-15T20:48:40;11.70;99.90
8988;DHT22;4529;51.360;12.474;2023-04-15T20:53:44;11.70;99.90
8988;DHT22;4529;51.360;12.474;2023-04-15T20:58:47;11.70;99.90
8988;DHT22;4529;51.360;12.474;2023-04-15T21:03:51;11.70;99.90
8988;DHT22;4529;51.360;12.474;2023-04-15T21:08:55;11.70;99.90
8988;DHT22;4529;51.360;12.474;2023-04-15T21:13:59;11.70;99.90
8988;DHT22;4529;51.360;12.474;2023-04-15T21:19:04;11.70;99.90
8988;DHT22;4529;51.360;12.474;2023-04-15T21:24:07;11.60;99.90
8988;DHT22;4529;51.360;12.474;2023-04-15T21:29:11;11.60;99.90
8988;DHT22;4529;51.360;12.474;2023-04-15T21:34:16;11.60;99.90
8988;DHT22;4529;51.360;12.474;2023-04-15T21:39:20;11.60;99.90
8988;DHT22;4529;51.360;12.474;2023-04-15T21:44:23;11.60;99.90
8988;DHT22;4529;51.360;12.474;2023-04-15T21:49:27;11.60;99.90
8988;DHT22;4529;51.360;12.474;2023-04-15T21:54:30;11.60;99.90
8988;DHT22;4529;51.360;12.474;2023-04-15T21:59:35;11.50;99.90
8988;DHT22;4529;51.360;12.474;2023-04-15T22:04:38;11.50;99.90
8988;DHT22;4529;51.360;12.474;2023-04-15T22:09:42;11.60;99.90
8988;DHT22;4529;51.360;12.474;2023-04-15T22:14:45;11.50;99.90
8988;DHT22;4529;51.360;12.474;2023-04-15T22:19:49;11.50;99.90
8988;DHT22;4529;51.360;12.474;2023-04-15T22:24:52;11.50;99.90
8988;DHT22;4529;51.360;12.474;2023-04-15T22:29:56;11.40;99.90
8988;DHT22;4529;51.360;12.474;2023-04-15T22:35:01;11.40;99.90
8988;DHT22;4529;51.360;12.474;2023-04-15T22:40:05;11.40;99.90
8988;DHT22;4529;51.360;12.474;2023-04-15T22:45:09;11.40;99.90
8988;DHT22;4529;51.360;12.474;2023-04-15T22:50:12;11.40;99.90
8988;DHT22;4529;51.360;12.474;2023-04-15T22:55:17;11.40;99.90
8988;DHT22;4529;51.360;12.474;2023-04-15T23:00:21;11.40;99.90
8988;DHT22;4529;51.360;12.474;2023-04-15T23:05:24;11.40;99.90
8988;DHT22;4529;51.360;12.474;2023-04-15T23:10:28;11.30;99.90
8988;DHT22;4529;51.360;12.474;2023-04-15T23:15:31;11.30;99.90
8988;DHT22;4529;51.360;12.474;2023-04-15T23:20:35;11.20;99.90
8988;DHT22;4529;51.360;12.474;2023-04-15T23:25:38;11.00;99.90
8988;DHT22;4529;51.360;12.474;2023-04-15T23:30:42;10.90;99.90
8988;DHT22;4529;51.360;12.474;2023-04-15T23:41:45;10.70;99.90
8988;DHT22;4529;51.360;12.474;2023-04-15T23:46:48;10.70;99.90
8988;DHT22;4529;51.360;12.474;2023-04-15T23:51:52;10.80;99.90
8988;DHT22;4529;51.360;12.474;2023-04-15T23:56:55;10.90;99.90
